Date,TemperatureHighF,TemperatureAvgF,TemperatureLowF,DewpointHighF,DewpointAvgF,DewpointLowF,HumidityHigh,HumidityAvg,HumidityLow,PressureMaxIn,PressureMinIn,WindSpeedMaxMPH,WindSpeedAvgMPH,GustSpeedMaxMPH,PrecipitationSumIn
2014-1-1,44.8,43.9,43.2,42.9,41.6,40.3,95,92,87,30.28,30.22,5,3,10,0.00
2014-1-2,48.3,42.9,40.6,42.6,36.6,-99.9,93,86,77,30.22,30.15,6,2,13,0.00
2014-1-3,49.1,45.5,45.1,45.4,41.1,-99.9,94,89,86,30.23,30.17,5,2,10,0.00
2014-1-4,50.3,45.6,44.0,46.3,41.8,-99.9,96,92,84,30.30,30.23,4,2,9,0.00
2014-1-5,54.0,44.7,39.6,46.8,40.0,-99.9,100,89,72,30.28,30.18,5,1,8,0.02
2014-1-6,57.9,49.7,42.4,43.6,41.5,38.6,100,75,54,30.22,30.17,5,2,11,0.01
2014-1-7,53.8,46.8,42.9,45.6,41.4,36.7,97,82,58,30.32,30.21,6,2,11,0.00
2014-1-8,47.3,44.8,43.6,44.4,41.8,-99.9,97,92,84,30.32,30.23,8,5,17,0.00
2014-1-9,48.9,44.3,40.5,43.6,41.9,39.2,96,91,81,30.24,30.16,8,3,14,0.00
2014-1-10,53.5,46.9,37.4,46.5,40.8,35.9,97,81,53,30.16,30.01,10,4,21,0.00
2014-1-11,55.6,49.0,42.7,46.9,43.7,40.5,93,82,57,30.25,30.13,6,2,12,0.00
2014-1-12,55.4,48.3,41.6,45.9,41.4,-99.9,92,80,65,30.21,30.09,8,3,17,0.00
2014-1-13,55.1,47.6,43.7,46.2,42.0,-99.9,97,84,49,30.22,30.12,5,2,11,0.00
2014-1-14,50.0,44.5,41.9,44.8,39.9,-99.9,96,89,80,30.16,30.10,5,1,9,0.01
2014-1-15,61.2,51.0,39.9,43.6,40.4,-99.9,97,71,50,30.12,30.04,5,1,13,0.00
2014-1-16,57.8,52.7,52.5,51.4,39.8,-99.9,91,71,58,30.06,29.99,6,2,14,0.02
2014-1-17,58.8,51.6,47.1,52.2,47.4,-99.9,97,88,75,30.17,30.06,6,2,15,0.00
2014-1-18,61.2,56.7,52.1,50.2,49.1,47.7,89,76,65,30.13,30.08,11,6,24,0.01
2014-1-19,63.9,55.7,56.3,53.2,43.1,-99.9,79,71,68,30.14,30.07,11,5,22,0.00
2014-1-20,63.4,57.6,53.5,49.4,44.4,-99.9,79,65,57,30.06,29.94,13,6,26,0.00
2014-1-21,65.6,60.1,55.7,48.3,44.2,-99.9,70,58,48,29.95,29.78,12,6,28,0.00
2014-1-22,59.9,54.4,49.2,48.7,47.4,45.8,91,78,62,29.96,29.76,13,5,27,0.51
2014-1-23,57.2,52.0,47.9,48.4,46.9,46.0,95,83,69,30.10,29.97,8,3,16,0.00
2014-1-24,58.6,50.3,46.9,50.6,45.1,-99.9,96,85,65,30.10,29.91,6,2,16,0.00
2014-1-25,61.8,52.1,46.3,48.2,43.2,-99.9,94,77,59,29.91,29.64,4,2,12,0.17
2014-1-26,56.0,42.5,38.2,45.1,34.4,-99.9,98,85,65,29.65,29.47,8,4,19,0.04
2014-1-27,38.1,34.2,31.4,37.6,32.9,30.1,98,95,92,29.71,29.49,11,6,23,0.15
2014-1-28,45.9,40.8,36.8,42.5,37.7,-99.9,96,91,84,29.75,29.67,6,4,15,0.09
2014-1-29,51.4,44.5,35.9,48.7,41.8,32.4,97,90,83,30.06,29.51,17,6,37,0.28
2014-1-30,35.5,32.5,31.9,32.4,27.1,-99.9,92,85,86,30.50,30.07,7,5,15,0.09
2014-1-31,38.0,36.9,34.7,34.7,33.3,30.9,92,87,83,30.54,30.49,9,7,22,0.09
2014-2-1,42.3,39.2,37.0,37.5,31.6,-99.9,91,81,76,30.51,30.35,11,7,23,0.02
2014-2-2,47.1,42.1,42.0,39.4,31.4,-99.9,83,74,65,30.35,30.16,13,8,30,0.02
2014-2-3,46.7,44.2,43.1,39.7,36.7,34.8,84,75,65,30.27,30.18,13,9,29,0.01
2014-2-4,43.8,42.4,39.6,36.7,34.7,32.6,79,74,69,30.33,30.27,10,6,21,0.00
2014-2-5,45.8,38.7,37.1,38.7,28.2,-99.9,93,78,75,30.29,30.18,8,3,18,0.00
2014-2-6,46.0,40.3,36.6,37.1,36.1,34.5,93,85,70,30.18,30.08,6,2,13,0.00
2014-2-7,51.0,40.1,34.5,42.6,34.0,-99.9,96,86,71,30.16,30.09,4,1,10,0.00
2014-2-8,60.6,51.4,42.3,47.4,41.4,-99.9,95,74,60,30.15,30.00,12,6,28,0.02
2014-2-9,60.5,56.6,55.0,50.6,45.9,-99.9,80,71,68,30.00,29.87,14,9,28,0.05
2014-2-10,63.8,57.2,51.7,51.0,47.4,42.6,89,71,47,30.06,29.84,11,6,28,0.36
2014-2-11,62.3,54.8,49.6,49.3,44.3,-99.9,87,72,60,30.11,30.03,9,3,17,0.00
2014-2-12,64.9,57.6,50.3,49.6,46.4,42.9,87,67,46,30.05,29.95,8,2,16,0.00
2014-2-13,66.7,58.8,52.5,50.0,46.6,44.5,91,65,47,29.96,29.88,9,2,19,0.03
2014-2-14,61.4,52.9,49.4,50.8,46.7,-99.9,94,82,61,29.91,29.78,5,1,12,0.37
2014-2-15,49.8,45.2,40.6,48.1,44.4,40.1,98,97,94,30.17,29.83,11,5,21,0.49
2014-2-16,54.6,45.7,39.6,45.2,42.2,38.6,98,88,70,30.22,30.15,7,2,15,0.00
2014-2-17,62.7,54.8,46.7,46.0,42.6,39.0,91,65,42,30.16,30.09,10,5,21,0.00
2014-2-18,65.8,55.1,44.2,52.4,46.7,42.9,97,75,57,30.34,30.15,11,5,21,0.00
2014-2-19,57.5,48.6,43.6,51.5,46.5,43.1,99,93,76,30.34,30.11,7,4,16,0.00
2014-2-20,67.4,57.3,49.3,49.9,46.2,-99.9,97,71,41,30.11,30.01,11,6,23,0.00
2014-2-21,57.1,49.2,43.9,51.7,46.7,43.4,100,91,79,30.09,29.95,8,3,16,0.00
2014-2-22,47.1,45.5,44.0,46.1,44.4,43.5,99,96,90,30.03,29.91,9,3,16,0.00
2014-2-23,48.9,46.5,45.0,43.9,43.0,42.1,94,88,80,30.06,30.01,5,2,11,0.00
2014-2-24,45.0,42.0,41.9,43.9,38.0,-99.9,98,93,94,30.10,30.03,10,5,23,0.80
2014-2-25,44.0,40.6,38.7,43.5,37.5,-99.9,98,94,91,30.23,30.04,10,7,24,0.42
2014-2-26,40.6,38.8,36.9,36.9,34.5,-99.9,93,87,84,30.27,30.22,4,2,10,0.15
2014-2-27,43.8,39.8,36.6,39.4,32.8,-99.9,94,84,78,30.27,30.20,4,1,7,0.02
2014-2-28,53.3,42.3,37.2,41.4,28.2,-99.9,95,71,56,30.20,30.01,6,1,12,0.02
2014-3-1,55.9,50.5,46.1,45.0,41.7,38.3,81,72,60,30.01,29.80,7,1,15,0.00
2014-3-2,56.3,50.6,45.3,48.6,44.1,37.4,92,79,62,29.80,29.56,9,2,21,0.00
2014-3-3,68.0,57.1,50.6,47.9,44.3,37.3,85,64,34,29.69,29.48,9,3,18,0.00
2014-3-4,60.6,54.0,50.5,48.6,44.8,-99.9,87,74,52,29.75,29.48,10,3,22,0.03
2014-3-5,66.0,55.2,49.2,50.1,43.3,-99.9,94,68,41,29.81,29.72,8,2,18,0.02
2014-3-6,63.7,54.3,48.2,46.8,43.9,39.5,92,69,42,30.07,29.81,9,3,19,0.01
2014-3-7,52.7,46.5,44.9,46.9,42.1,-99.9,96,87,67,30.15,30.07,14,6,26,0.02
2014-3-8,46.8,45.4,42.8,46.0,44.3,41.7,97,96,92,30.15,30.03,11,7,24,0.91
2014-3-9,44.9,42.4,41.5,44.1,40.1,-99.9,97,94,93,30.17,30.10,9,7,22,0.15
2014-3-10,45.0,43.1,41.9,44.5,40.4,-99.9,98,96,96,30.10,29.92,12,8,24,1.09
2014-3-11,43.0,41.3,40.5,41.2,39.8,37.7,99,94,89,30.12,29.92,7,4,16,0.48
2014-3-12,48.5,41.6,39.5,42.1,32.0,-99.9,91,79,77,30.25,30.09,12,4,26,0.00
2014-3-13,47.8,42.9,38.6,42.1,37.2,-99.9,97,83,64,30.34,30.24,12,4,27,0.00
2014-3-14,57.6,42.6,35.6,42.8,28.2,-99.9,97,70,46,30.35,30.22,5,1,9,0.01
2014-3-15,60.6,50.6,39.6,44.2,38.5,33.8,97,66,40,30.22,29.80,10,4,23,0.00
2014-3-16,54.1,50.2,46.5,46.3,42.5,38.2,89,76,56,29.88,29.77,13,6,27,0.08
2014-3-17,61.9,54.4,47.8,51.0,47.0,44.4,94,77,56,30.04,29.83,7,3,15,0.00
2014-3-18,65.4,54.7,49.6,48.4,41.7,-99.9,87,67,52,30.11,30.02,7,3,16,0.00
2014-3-19,72.2,59.1,51.8,46.2,35.7,-99.9,74,49,34,30.10,29.95,11,4,22,0.00
2014-3-20,60.5,51.5,46.3,48.5,40.6,-99.9,94,73,52,30.31,29.98,12,3,28,0.72
2014-3-21,59.1,48.1,43.3,47.6,32.0,-99.9,95,65,47,30.33,30.19,10,3,19,0.00
2014-3-22,58.8,50.2,43.0,49.6,44.1,37.4,95,80,58,30.18,30.01,6,3,12,0.00
2014-3-23,66.3,52.3,41.3,49.8,41.1,-99.9,100,72,42,30.01,29.92,6,2,12,0.00
2014-3-24,68.9,59.8,50.0,48.9,42.9,36.7,86,56,31,29.95,29.78,8,2,16,0.00
2014-3-25,63.9,56.3,51.0,49.8,46.0,41.9,85,69,48,29.89,29.71,10,3,21,0.06
2014-3-26,61.8,54.0,48.7,47.1,42.6,-99.9,88,69,47,30.05,29.89,8,3,17,0.00
2014-3-27,67.1,56.4,50.3,51.7,49.0,46.3,94,78,48,30.07,29.93,7,3,15,0.35
2014-3-28,60.7,54.1,47.6,52.3,48.8,46.0,96,83,65,29.93,29.83,7,1,17,0.30
2014-3-29,53.7,47.4,40.4,48.7,41.7,25.9,97,82,55,30.24,29.90,16,7,30,0.05
2014-3-30,46.5,42.0,36.8,31.9,27.3,-99.9,69,58,47,30.26,30.14,10,4,19,0.00
2014-3-31,62.3,47.9,35.7,37.1,28.2,-99.9,85,54,8,30.14,29.88,5,1,12,0.00
2014-4-1,64.7,51.3,41.1,47.1,37.0,-99.9,92,65,39,29.89,29.81,9,2,19,0.00
2014-4-2,58.5,51.6,47.4,50.6,46.3,42.5,90,82,61,30.04,29.87,10,4,22,0.00
2014-4-3,52.3,48.9,46.0,46.6,44.2,41.5,90,84,75,30.09,30.02,10,5,18,0.00
2014-4-4,71.6,57.6,45.1,52.2,43.3,-99.9,90,64,42,30.03,29.91,11,3,20,0.00
2014-4-5,73.5,61.3,52.2,53.8,46.5,36.3,94,64,27,29.99,29.95,6,2,12,0.00
2014-4-6,60.9,52.6,47.6,49.4,47.2,42.5,94,83,52,30.05,29.99,14,7,25,0.00
2014-4-7,51.3,48.2,47.0,46.4,43.8,-99.9,94,87,78,30.05,29.98,10,7,23,0.01
2014-4-8,58.6,51.4,47.1,48.5,44.6,42.0,92,78,60,30.10,30.04,8,2,16,0.00
2014-4-9,67.0,55.6,43.3,48.9,45.2,41.1,94,70,48,30.05,29.89,6,2,14,0.00
2014-4-10,57.6,52.8,48.8,47.9,46.6,44.7,96,80,65,29.92,29.83,11,4,20,0.22
2014-4-11,51.7,48.9,46.6,48.8,47.4,44.7,97,95,87,30.03,29.85,4,2,12,0.62
2014-4-12,51.4,47.4,42.8,48.6,45.6,41.5,96,93,89,30.10,29.98,4,1,10,0.43
2014-4-13,62.3,53.2,46.1,48.2,45.3,36.9,95,77,39,30.10,29.99,5,2,12,0.05
2014-4-14,60.9,53.2,45.6,51.5,44.1,39.9,98,74,48,30.07,29.97,5,1,10,0.00
2014-4-15,70.2,58.5,45.5,46.0,40.3,32.5,87,55,25,29.97,29.85,7,2,15,0.00
2014-4-16,72.2,62.1,51.5,47.9,42.7,38.4,76,51,31,29.91,29.85,8,2,17,0.00
2014-4-17,66.6,56.3,51.0,52.6,47.6,39.5,95,74,49,29.89,29.75,8,3,17,0.00
2014-4-18,64.0,55.4,50.2,53.5,48.6,44.0,96,80,50,29.80,29.64,10,5,23,0.15
2014-4-19,64.9,58.7,51.7,47.9,45.3,40.6,83,62,41,29.98,29.80,9,4,18,0.00
2014-4-20,69.6,60.7,55.4,52.8,47.4,44.4,88,63,42,30.00,29.92,8,4,18,0.00
2014-4-21,69.9,61.2,53.4,53.4,49.9,45.4,89,69,42,30.02,29.98,6,2,13,0.00
2014-4-22,77.9,66.5,55.9,54.8,51.2,48.3,84,61,36,30.02,29.94,7,2,17,0.00
2014-4-23,73.6,63.8,57.5,57.8,53.5,-99.9,88,72,54,30.09,30.01,5,2,11,0.00
2014-4-24,67.4,61.9,58.8,57.8,53.5,-99.9,90,76,61,30.00,29.78,7,2,17,0.08
2014-4-25,60.3,56.0,53.9,55.8,53.6,51.9,97,92,79,29.83,29.77,8,3,17,0.00
2014-4-26,56.7,53.8,53.0,53.5,50.8,-99.9,97,92,85,29.94,29.83,6,2,11,0.07
2014-4-27,61.1,55.0,52.8,55.9,52.8,51.1,96,92,81,29.93,29.80,7,3,14,0.00
2014-4-28,59.7,55.7,52.8,57.2,54.3,52.0,98,95,88,29.82,29.73,5,2,14,0.64
2014-4-29,66.4,59.1,55.6,55.7,51.1,-99.9,94,79,65,29.82,29.72,9,5,17,0.07
2014-4-30,62.7,59.3,55.7,55.6,52.1,49.6,87,77,64,29.80,29.73,10,4,19,0.05
2014-5-1,66.4,60.1,54.4,55.2,51.4,49.3,93,74,60,29.85,29.78,8,4,16,0.00
2014-5-2,70.3,62.6,56.9,55.9,53.8,50.6,93,74,50,29.89,29.81,8,3,15,0.02
2014-5-3,73.9,63.4,54.2,57.1,54.2,51.2,95,74,45,29.91,29.82,6,2,14,0.00
2014-5-4,74.7,64.3,57.1,59.9,53.7,-99.9,96,72,51,29.82,29.63,6,2,13,0.50
2014-5-5,64.7,57.2,54.4,58.0,49.7,-99.9,95,82,72,29.99,29.70,8,4,17,0.00
2014-5-6,59.7,54.7,53.4,53.9,48.8,-99.9,96,85,77,30.24,30.00,12,6,24,0.07
2014-5-7,57.5,53.8,51.2,52.7,47.6,-99.9,87,82,70,30.24,30.11,10,6,22,0.00
2014-5-8,58.7,55.5,53.1,53.0,50.8,48.3,91,84,77,30.11,29.93,12,7,25,0.00
2014-5-9,56.2,54.6,53.2,55.5,52.2,-99.9,98,94,91,29.92,29.76,10,5,21,1.69
2014-5-10,58.0,55.8,54.6,56.6,54.9,54.0,98,97,93,29.96,29.77,4,2,16,0.37
2014-5-11,64.9,58.5,55.7,59.0,54.7,-99.9,97,90,73,30.00,29.94,5,2,9,0.04
2014-5-12,76.4,65.0,52.5,58.1,54.5,51.3,97,72,43,29.98,29.86,9,3,19,0.01
2014-5-13,64.0,58.7,57.0,57.7,51.8,-99.9,95,82,71,30.05,29.94,7,4,15,0.00
2014-5-14,84.2,71.4,56.7,60.7,56.2,51.0,96,63,38,29.97,29.61,7,2,15,0.00
2014-5-15,75.5,68.4,63.0,57.2,48.0,-99.9,70,51,36,29.83,29.61,12,6,30,0.00
2014-5-16,75.6,65.6,56.9,51.9,46.0,-99.9,82,53,28,29.91,29.83,7,3,15,0.00
2014-5-17,74.0,66.0,58.5,54.2,48.7,37.7,82,56,28,30.04,29.91,8,3,16,0.00
2014-5-18,73.7,62.1,57.6,56.4,45.3,-99.9,89,62,30,30.10,30.04,7,3,16,0.00
2014-5-19,72.2,63.0,54.4,57.4,52.8,-99.9,92,72,55,30.13,30.08,6,2,12,0.00
2014-5-20,66.5,59.2,55.1,59.2,50.4,-99.9,94,79,69,30.08,30.05,9,4,19,0.00
2014-5-21,69.2,63.3,58.1,58.8,56.2,51.6,97,79,59,30.09,30.02,8,4,18,0.01
2014-5-22,70.1,64.4,58.5,62.0,59.9,55.5,92,86,74,30.02,29.96,8,3,18,0.00
2014-5-23,72.5,65.2,59.9,61.6,59.3,54.9,94,82,57,29.96,29.90,7,2,15,0.00
2014-5-24,71.9,63.1,58.4,61.9,54.4,-99.9,97,80,62,30.00,29.92,5,1,10,0.00
2014-5-25,76.4,67.0,58.2,62.2,59.5,56.5,95,78,58,30.03,29.97,5,1,12,0.00
2014-5-26,80.9,70.1,58.8,64.1,59.4,56.4,94,71,49,30.01,29.88,5,2,12,0.00
2014-5-27,82.9,72.3,61.2,62.3,58.8,55.1,85,64,40,29.90,29.80,5,2,13,0.00
2014-5-28,86.4,70.0,64.7,65.1,53.4,-99.9,85,64,38,29.83,29.78,6,2,14,0.00
2014-5-29,87.6,76.6,66.8,65.5,60.0,47.0,87,60,25,29.82,29.71,9,2,19,0.00
2014-5-30,77.5,70.8,61.3,61.8,58.4,54.4,92,66,49,29.76,29.67,11,6,24,0.28
2014-5-31,69.5,64.8,61.2,61.0,57.8,54.7,93,79,66,29.82,29.68,8,5,17,0.20
2014-6-1,67.2,63.2,61.1,60.3,58.2,55.5,93,84,73,29.88,29.81,6,2,12,0.07
2014-6-2,67.8,61.7,59.5,60.9,57.5,-99.9,95,88,75,29.94,29.86,6,1,12,0.51
2014-6-3,67.5,63.0,57.0,62.1,59.2,55.3,96,88,78,30.00,29.93,5,0,11,0.34
2014-6-4,67.8,64.3,61.5,64.7,61.3,57.4,96,90,82,29.93,29.71,11,4,25,0.02
2014-6-5,69.4,63.4,61.9,63.1,59.9,-99.9,97,91,79,29.83,29.69,5,2,13,0.03
2014-6-6,72.3,62.8,62.1,65.8,56.0,-99.9,96,87,77,29.89,29.83,6,3,17,0.02
2014-6-7,70.2,68.5,66.1,65.8,63.6,61.8,93,84,77,29.90,29.78,8,5,20,0.02
2014-6-8,71.3,67.2,63.4,65.7,64.2,62.2,97,90,78,29.96,29.87,8,3,16,0.01
2014-6-9,71.8,67.8,64.4,66.0,64.7,63.5,97,90,78,30.00,29.90,9,5,18,0.03
2014-6-10,77.2,68.6,65.1,68.3,62.5,-99.9,96,86,67,30.01,29.95,7,4,17,0.02
2014-6-11,79.3,70.4,63.6,68.0,64.1,59.4,98,82,59,30.00,29.94,9,2,21,0.01
2014-6-12,74.2,68.3,62.1,65.5,62.4,59.0,93,82,70,30.03,29.98,8,3,18,0.01
2014-6-13,82.0,71.7,60.5,63.9,57.6,-99.9,96,66,45,30.01,29.84,6,2,13,0.00
2014-6-14,85.8,74.4,65.7,67.1,63.0,58.5,90,69,44,29.84,29.77,6,2,14,0.00
2014-6-15,75.5,69.5,67.6,68.2,63.2,-99.9,96,85,72,29.95,29.83,9,4,19,0.02
2014-6-16,77.7,69.9,67.8,68.6,63.5,-99.9,94,84,72,29.98,29.92,9,4,19,0.02
2014-6-17,84.4,75.1,64.7,68.8,64.3,59.5,96,72,43,29.98,29.91,6,2,14,0.00
2014-6-18,82.9,75.3,69.9,69.8,67.0,61.9,91,76,56,29.98,29.88,8,3,15,0.00
2014-6-19,75.3,67.5,64.2,68.8,58.8,-99.9,96,82,70,29.88,29.67,10,4,18,0.40
2014-6-20,73.5,67.4,62.0,65.1,59.2,53.7,96,76,54,29.80,29.63,9,3,22,0.08
2014-6-21,76.3,65.8,60.0,63.2,57.4,-99.9,92,78,50,30.00,29.79,7,2,14,0.42
2014-6-22,74.3,66.4,59.2,60.7,55.0,-99.9,96,71,45,30.15,29.99,5,2,12,0.27
2014-6-23,76.8,68.6,57.8,61.5,57.6,54.5,93,70,46,30.17,30.13,7,2,14,0.00
2014-6-24,79.0,66.1,58.7,61.8,45.0,-99.9,92,57,39,30.14,29.94,7,2,14,0.00
2014-6-25,86.3,76.9,66.5,64.6,58.7,53.1,80,56,35,30.00,29.83,6,2,16,0.00
2014-6-26,92.5,79.4,73.4,67.2,59.7,-99.9,70,53,34,29.96,29.80,8,4,22,0.00
2014-6-27,79.3,73.2,67.8,69.9,61.6,-99.9,85,70,54,30.05,29.88,13,6,27,0.00
2014-6-28,72.5,69.3,66.7,63.3,61.7,60.3,84,77,67,30.10,30.03,12,8,26,0.00
2014-6-29,73.0,67.7,65.7,63.7,58.0,-99.9,85,75,67,30.09,30.02,10,6,24,0.00
2014-6-30,73.9,69.6,65.6,66.6,64.1,61.5,93,83,71,30.01,29.86,9,5,18,0.00
2014-7-1,77.0,70.3,65.5,67.5,63.0,-99.9,97,80,64,30.08,29.85,8,2,16,0.00
2014-7-2,76.6,71.0,65.4,67.5,63.8,59.7,91,79,59,30.17,30.08,11,4,23,0.00
2014-7-3,73.7,66.9,65.0,65.0,56.8,-99.9,94,78,66,30.15,29.99,9,4,19,0.00
2014-7-4,72.8,68.4,64.8,65.5,63.4,60.2,92,84,67,30.01,29.97,10,6,24,0.89
2014-7-5,75.4,71.5,68.8,67.8,66.2,63.7,91,84,75,30.01,29.96,9,6,19,0.10
2014-7-6,74.8,70.5,63.8,68.3,64.9,61.5,94,83,71,29.99,29.95,10,5,22,0.00
2014-7-7,77.5,72.2,68.9,69.3,65.6,-99.9,95,82,62,30.00,29.95,10,5,21,0.00
2014-7-8,79.2,73.7,68.8,69.9,68.5,66.6,96,84,70,30.00,29.89,8,4,18,0.00
2014-7-9,82.3,73.5,67.3,69.2,64.9,-99.9,94,77,57,29.89,29.72,8,4,21,0.00
2014-7-10,81.6,73.3,68.7,71.1,66.3,62.2,95,78,53,29.75,29.68,6,3,13,0.00
2014-7-11,93.7,83.1,72.1,68.3,60.9,52.5,88,51,26,29.70,29.59,8,3,20,0.00
2014-7-12,87.5,76.9,68.5,71.9,67.2,59.5,93,74,39,29.86,29.70,13,3,25,0.62
2014-7-13,79.3,74.7,69.1,71.0,64.7,56.8,97,73,50,29.95,29.86,8,3,16,0.02
2014-7-14,79.8,73.6,65.9,69.2,64.2,54.6,91,74,43,29.91,29.85,9,4,18,0.00
2014-7-15,78.5,71.5,68.0,69.6,65.3,65.3,93,79,65,29.86,29.76,10,5,22,0.00
2014-7-16,78.0,74.0,70.4,69.6,66.0,63.0,88,76,61,29.86,29.75,10,5,21,0.00
2014-7-17,78.3,74.3,69.4,69.9,67.3,63.9,91,79,64,29.90,29.86,6,2,15,0.00
2014-7-18,80.7,72.9,66.2,69.0,65.4,64.2,94,77,61,29.89,29.82,6,2,14,0.00
2014-7-19,75.0,71.7,68.1,71.7,68.4,65.5,96,90,78,29.89,29.82,8,3,17,0.80
2014-7-20,77.3,74.0,70.4,71.0,69.3,67.8,94,86,75,29.92,29.87,8,4,19,0.15
2014-7-21,81.5,75.6,69.0,71.6,69.3,63.7,97,82,59,29.92,29.86,6,2,13,0.03
2014-7-22,81.0,72.9,66.8,71.8,67.2,65.6,97,80,63,29.87,29.76,9,3,19,0.04
2014-7-23,81.9,76.7,72.1,73.1,71.9,70.3,95,86,70,29.77,29.69,7,4,16,0.00
2014-7-24,80.2,74.3,67.7,73.2,70.5,63.1,97,88,74,29.83,29.73,8,2,19,0.40
2014-7-25,79.7,75.0,70.4,72.4,70.5,68.7,97,87,75,29.86,29.81,9,4,18,0.00
2014-7-26,80.3,76.5,73.1,72.2,71.3,69.4,93,84,74,29.87,29.83,8,4,18,0.00
2014-7-27,82.1,77.1,71.5,74.9,72.4,70.3,97,86,70,29.94,29.87,7,3,17,0.00
2014-7-28,82.4,77.8,73.5,75.1,73.3,72.0,97,86,72,29.94,29.83,8,4,18,0.00
2014-7-29,81.8,77.7,74.7,75.0,73.3,71.8,94,86,77,29.84,29.80,10,5,23,0.00
2014-7-30,81.6,74.8,72.5,72.7,69.1,69.9,94,80,69,29.88,29.82,10,4,19,0.00
2014-7-31,83.6,77.3,71.5,72.4,68.7,64.6,95,76,54,29.85,29.73,8,4,19,0.00
2014-8-1,81.6,76.5,73.3,73.4,70.5,67.0,90,81,72,29.73,29.66,11,6,24,0.00
2014-8-2,82.1,77.6,69.7,75.0,73.1,67.2,93,86,74,29.79,29.67,8,4,18,0.15
2014-8-3,81.5,72.2,68.2,74.0,68.2,66.1,95,85,72,29.82,29.76,6,2,16,0.15
2014-8-4,83.3,77.6,70.8,74.4,72.1,68.7,96,84,68,29.79,29.76,6,2,17,0.00
2014-8-5,85.8,78.7,74.2,75.0,70.9,64.1,95,78,51,29.77,29.73,8,4,17,0.00
2014-8-6,83.3,77.8,74.9,74.8,72.1,67.6,95,82,60,29.76,29.71,10,5,20,0.00
2014-8-7,81.6,73.3,67.4,74.4,69.0,62.1,94,85,68,29.83,29.70,10,4,20,0.32
2014-8-8,76.7,68.2,66.0,70.7,64.4,64.5,97,84,74,29.89,29.81,7,2,16,0.25
2014-8-9,78.2,70.5,69.4,70.8,66.8,66.4,95,86,75,29.96,29.88,6,1,14,0.51
2014-8-10,83.6,76.6,69.5,74.3,70.8,65.4,98,84,55,29.99,29.94,7,3,15,0.00
2014-8-11,81.9,77.1,72.9,74.8,73.1,71.7,98,88,73,29.96,29.92,9,4,19,0.00
2014-8-12,82.3,74.8,72.4,73.9,69.9,65.7,97,82,59,29.95,29.91,9,4,19,0.00
2014-8-13,82.6,77.7,73.0,74.4,72.5,70.4,97,84,69,29.96,29.91,9,4,19,0.00
2014-8-14,83.8,77.8,75.2,74.7,72.0,69.4,91,82,64,29.92,29.82,9,5,20,0.00
2014-8-15,87.5,78.8,70.2,74.3,71.0,66.9,97,78,54,29.84,29.78,5,1,12,0.00
2014-8-16,87.7,78.7,70.7,74.4,70.1,58.3,93,77,41,29.84,29.77,9,3,15,0.00
2014-8-17,83.5,76.9,68.6,75.7,72.7,64.2,96,87,72,29.79,29.69,11,6,26,0.07
2014-8-18,75.0,70.9,67.7,67.1,64.6,62.5,94,80,70,29.96,29.77,11,8,25,0.45
2014-8-19,77.8,74.2,70.7,65.1,62.7,60.7,79,68,57,30.05,29.94,10,6,22,0.00
2014-8-20,80.2,74.3,67.6,70.8,67.4,61.8,88,79,70,30.06,29.98,8,3,20,0.00
2014-8-21,82.1,75.5,68.3,71.5,69.1,66.8,96,81,66,30.01,29.96,6,2,13,0.00
2014-8-22,84.7,74.8,68.5,72.7,67.9,66.3,96,78,56,30.01,29.95,8,2,16,0.00
2014-8-23,82.6,76.9,72.2,73.6,71.4,68.9,94,83,69,30.01,29.96,9,4,21,0.00
2014-8-24,86.0,76.8,71.8,73.9,71.0,69.3,93,82,62,29.96,29.82,7,2,16,0.00
2014-8-25,77.6,73.5,73.2,73.1,68.2,67.1,96,82,75,30.02,29.89,12,7,26,0.00
2014-8-26,79.7,75.4,72.4,69.1,67.7,66.0,88,77,67,30.02,29.92,10,6,21,0.00
2014-8-27,81.1,73.3,68.2,72.1,68.6,66.8,97,84,72,29.92,29.80,7,2,14,0.00
2014-8-28,78.8,72.8,68.8,72.2,67.9,67.0,97,83,73,30.00,29.79,13,6,25,0.00
2014-8-29,76.6,73.6,70.5,66.5,62.1,58.2,77,68,56,30.09,30.00,12,9,32,0.00
2014-8-30,77.5,72.9,70.2,67.1,63.6,59.4,81,73,66,30.09,29.99,14,8,29,0.00
2014-8-31,77.0,73.9,72.3,67.0,65.4,63.9,81,75,65,29.99,29.87,12,8,28,0.00
2014-9-1,76.3,73.3,69.0,68.4,66.9,65.3,90,80,72,29.87,29.79,7,4,16,0.00
2014-9-2,80.7,74.0,68.8,70.4,68.6,66.5,94,84,69,29.80,29.76,7,2,14,0.00
2014-9-3,84.1,75.4,69.6,73.5,70.5,68.5,97,86,64,29.81,29.75,7,2,15,0.04
2014-9-4,80.3,73.6,69.7,73.0,69.4,67.5,95,85,72,29.85,29.77,9,4,17,0.04
2014-9-5,79.1,74.6,72.9,73.3,71.1,70.8,94,88,79,29.84,29.74,12,5,22,0.04
2014-9-6,77.4,72.7,66.3,72.6,68.9,64.7,96,87,76,29.80,29.71,10,3,19,0.52
2014-9-7,78.6,72.3,68.6,69.6,67.2,65.5,95,84,68,29.89,29.77,7,2,14,0.00
2014-9-8,74.0,69.1,64.3,68.6,65.2,61.9,96,87,74,29.98,29.86,6,2,15,0.81
2014-9-9,78.2,71.4,64.8,68.2,65.2,61.1,97,82,56,29.98,29.94,7,2,14,0.00
2014-9-10,78.7,71.0,65.8,68.5,63.7,47.6,96,78,34,29.96,29.91,8,3,15,0.00
2014-9-11,77.9,70.7,65.3,67.0,63.3,60.3,96,78,55,30.00,29.94,8,3,19,0.00
2014-9-12,77.2,72.0,65.3,68.6,65.9,62.8,93,82,71,30.04,29.96,8,3,18,0.00
2014-9-13,76.0,72.0,66.8,68.5,66.6,65.1,96,84,71,30.04,29.99,10,4,20,0.00
2014-9-14,77.5,72.7,69.4,68.6,66.9,64.7,91,82,69,29.99,29.93,10,4,20,0.00
2014-9-15,75.7,70.7,67.7,66.6,63.4,61.6,86,77,70,29.95,29.92,9,4,21,0.00
2014-9-16,75.4,70.4,66.9,66.6,63.4,61.4,86,78,68,29.92,29.88,9,4,20,0.00
2014-9-17,73.7,69.0,65.1,65.3,61.7,59.2,93,77,64,29.93,29.88,11,6,25,0.19
2014-9-18,68.8,63.8,61.4,63.8,61.2,58.7,95,90,78,30.10,29.91,7,3,20,2.79
2014-9-19,71.1,67.7,64.1,62.4,58.7,55.2,94,73,58,30.20,30.09,9,5,20,0.01
2014-9-20,71.1,62.3,58.8,60.0,54.4,55.2,91,71,60,30.20,30.07,8,2,15,0.00
2014-9-21,75.1,66.3,61.0,59.9,57.4,52.3,90,74,47,30.07,29.92,3,1,7,0.00
2014-9-22,78.2,69.5,59.1,65.3,60.8,57.1,95,75,53,29.93,29.75,7,2,13,0.00
2014-9-23,77.9,67.8,58.0,70.0,61.6,49.0,96,81,69,30.00,29.56,13,4,37,0.55
2014-9-24,66.6,59.8,54.1,52.7,49.5,46.2,83,69,55,30.11,30.00,5,2,11,0.00
2014-9-25,69.4,61.0,51.8,55.3,51.8,48.2,95,73,49,30.09,30.03,6,1,14,0.00
2014-9-26,69.4,58.9,54.7,58.2,52.0,50.1,95,75,52,30.04,29.82,6,2,16,0.54
2014-9-27,60.3,58.9,57.5,58.2,56.7,54.5,96,93,86,29.87,29.73,15,6,33,2.17
2014-9-28,64.5,62.6,58.9,59.1,56.1,52.7,95,80,68,30.27,29.82,18,12,38,0.41
2014-9-29,66.1,62.2,57.6,56.5,53.0,51.8,83,70,61,30.37,30.27,11,6,25,0.00
2014-9-30,66.3,60.0,54.3,57.5,54.3,52.3,95,82,69,30.36,30.24,7,2,13,0.00
2014-10-1,68.8,59.7,52.1,58.1,54.1,51.0,97,82,58,30.24,30.20,7,2,14,0.02
2014-10-2,67.7,63.4,58.1,60.7,58.5,55.2,94,84,76,30.26,30.20,11,5,26,0.01
2014-10-3,62.9,59.7,57.8,57.5,53.5,48.3,87,78,70,30.25,30.17,12,7,26,0.00
2014-10-4,62.3,59.7,57.7,56.0,53.2,48.6,86,78,71,30.17,30.11,8,5,17,0.00
2014-10-5,64.7,61.5,58.9,56.5,55.2,54.1,84,80,72,30.17,30.10,9,6,20,0.00
2014-10-6,65.7,61.4,58.0,58.3,56.5,53.8,93,84,74,30.26,30.16,6,2,14,0.00
2014-10-7,73.2,63.6,57.8,61.7,58.8,55.7,96,85,59,30.24,30.16,5,1,12,0.00
2014-10-8,68.1,62.8,61.6,62.5,59.9,58.7,96,88,74,30.21,30.16,10,5,20,0.02
2014-10-9,64.1,59.8,61.3,60.4,55.4,55.2,91,81,78,30.23,30.18,9,6,20,0.00
2014-10-10,64.3,59.3,60.9,59.7,55.3,56.7,89,82,81,30.20,30.16,10,5,21,0.00
2014-10-11,64.0,63.0,62.4,60.3,59.2,56.1,91,88,80,30.15,30.08,10,6,20,0.00
2014-10-12,62.7,58.3,57.3,59.5,54.6,51.5,93,84,70,30.09,30.05,5,2,12,0.08
2014-10-13,66.2,60.4,55.0,58.4,56.0,53.3,96,86,70,30.08,30.03,6,2,18,0.01
2014-10-14,66.4,59.4,55.9,60.7,56.7,54.5,96,90,78,30.05,29.99,9,2,13,0.00
2014-10-15,70.2,62.5,54.8,61.7,58.8,54.0,98,88,73,30.04,29.97,6,2,16,0.01
2014-10-16,74.0,69.0,63.5,63.4,60.3,58.5,89,74,60,29.98,29.88,9,5,18,0.00
2014-10-17,75.1,69.5,65.0,65.7,63.0,60.4,94,80,63,29.99,29.90,8,3,16,0.02
2014-10-18,70.8,64.6,59.3,63.7,58.0,52.8,91,79,66,30.23,29.86,12,6,28,0.10
2014-10-19,59.8,56.1,49.7,53.7,47.6,43.3,92,74,59,30.38,30.23,11,6,23,0.21
2014-10-20,62.7,52.0,45.5,48.6,43.6,42.0,91,71,51,30.35,30.08,6,1,11,0.00
2014-10-21,68.8,58.3,53.5,52.4,48.5,46.9,86,69,47,30.07,29.86,7,2,15,0.00
2014-10-22,73.8,66.0,57.3,57.5,52.9,49.0,81,64,46,29.86,29.73,12,6,27,0.00
2014-10-23,79.9,70.9,63.6,60.3,54.4,51.7,85,57,39,29.78,29.65,8,3,23,0.07
2014-10-24,67.5,63.9,62.0,60.9,59.5,57.4,92,86,74,29.95,29.77,9,4,19,0.02
2014-10-25,71.1,62.7,55.3,60.4,56.5,49.6,95,82,47,29.99,29.78,7,3,21,0.60
2014-10-26,64.1,57.8,53.4,57.5,54.5,51.9,96,89,73,30.15,29.99,11,3,24,0.25
2014-10-27,57.3,51.5,49.5,56.2,50.2,48.1,96,94,93,30.28,30.14,12,9,27,0.19
2014-10-28,56.0,52.9,50.1,54.3,51.6,48.7,97,95,94,30.28,30.20,7,5,17,0.02
2014-10-29,60.6,56.5,54.3,59.3,55.2,53.2,100,93,92,30.20,30.06,8,5,19,0.06
2014-10-30,56.8,53.5,50.6,55.4,52.2,49.1,97,95,94,30.10,30.03,9,6,20,0.46
2014-10-31,53.2,50.7,48.9,52.1,49.1,47.5,96,94,88,30.16,30.05,10,6,24,1.86
2014-11-1,53.3,51.3,50.3,48.4,45.0,42.9,87,78,71,30.27,30.15,9,5,20,0.10
2014-11-2,54.4,51.3,46.2,44.8,43.2,41.3,84,74,66,30.29,30.22,8,4,17,0.07
2014-11-3,53.2,47.7,44.3,44.2,38.6,36.6,81,68,56,30.30,30.25,7,3,19,0.12
2014-11-4,57.3,49.1,44.0,47.1,41.9,38.7,89,76,55,30.26,30.19,8,2,14,0.08
2014-11-5,64.4,53.2,43.1,50.8,44.4,40.4,94,74,42,30.28,30.18,4,1,10,0.02
2014-11-6,65.2,57.6,50.5,53.3,50.6,47.1,94,79,60,30.31,30.25,9,2,18,0.00
2014-11-7,69.2,60.5,53.2,52.1,48.8,47.0,84,66,46,30.28,30.10,5,1,11,0.00
2014-11-8,73.1,59.4,53.4,51.3,45.8,40.8,86,61,34,30.11,30.01,3,1,7,0.00
2014-11-9,65.9,57.2,52.5,58.2,53.5,45.1,97,88,66,30.12,29.99,3,1,8,0.00
2014-11-10,66.2,56.4,52.6,58.8,54.1,51.5,98,91,69,30.25,30.12,5,2,11,0.00
2014-11-11,61.3,57.6,55.7,56.2,54.4,52.9,95,89,81,30.26,30.17,7,4,15,0.00
2014-11-12,61.1,57.8,55.8,57.0,54.7,52.6,92,89,81,30.16,30.00,6,3,12,0.00
2014-11-13,61.5,57.1,56.2,56.1,54.6,53.9,95,90,82,30.00,29.92,4,2,9,0.00
2014-11-14,61.0,58.1,56.6,57.3,56.0,55.0,96,93,87,29.97,29.90,8,5,18,0.00
2014-11-15,56.6,54.5,53.1,55.2,53.1,51.7,97,94,93,30.06,29.97,9,6,18,0.10
2014-11-16,55.6,54.3,53.6,54.2,52.8,51.8,96,95,92,30.07,30.04,6,4,13,0.00
2014-11-17,61.4,56.9,53.6,55.2,53.3,51.6,94,88,75,30.08,30.00,5,1,11,0.02
2014-11-18,67.8,60.8,54.1,58.1,55.6,52.2,96,83,68,30.15,30.08,3,1,9,0.00
2014-11-19,70.7,64.8,60.6,56.4,54.0,52.3,84,69,53,30.12,29.92,5,2,13,0.00
2014-11-20,66.4,54.5,48.8,54.2,49.9,44.2,94,85,60,30.06,29.88,8,3,21,0.54
2014-11-21,52.6,49.4,44.1,47.7,44.7,41.4,93,84,75,30.13,30.04,7,3,20,0.03
2014-11-22,45.7,42.5,42.7,43.1,40.0,39.6,94,87,82,30.31,30.13,6,4,16,0.15
2014-11-23,48.3,44.9,44.5,45.1,39.9,39.0,95,80,71,30.34,30.29,8,4,17,0.06
2014-11-24,48.7,46.2,43.8,46.1,42.8,39.2,94,86,71,30.30,30.17,9,4,18,1.34
2014-11-25,47.2,45.8,43.5,43.8,42.1,39.7,94,87,79,30.22,30.17,14,9,30,0.68
2014-11-26,46.0,43.4,42.1,41.8,39.9,38.0,92,87,79,30.24,30.15,12,8,26,0.22
2014-11-27,43.6,42.3,40.5,40.6,39.2,37.6,93,89,81,30.26,30.23,7,4,16,0.00
2014-11-28,52.8,44.9,39.7,44.2,41.4,38.4,100,88,63,30.29,30.24,3,0,8,0.02
2014-11-29,55.4,52.2,45.5,50.0,47.5,42.4,95,84,76,30.27,30.17,5,2,11,0.00
2014-11-30,49.8,46.8,44.5,48.6,45.9,43.7,100,97,93,30.17,30.10,9,4,18,0.92
2014-12-1,46.4,45.6,44.7,45.3,44.0,42.6,96,94,89,30.22,30.14,7,4,17,0.18
2014-12-2,50.6,48.6,46.1,48.6,45.8,42.9,96,90,85,30.13,30.01,6,3,23,0.06
2014-12-3,60.5,52.1,49.3,56.5,50.8,48.2,98,93,86,30.13,30.06,4,1,10,0.09
2014-12-4,57.6,53.3,52.1,56.8,52.6,51.6,99,96,95,30.15,30.07,3,1,8,0.02
2014-12-5,52.2,48.7,47.4,51.7,48.2,46.9,100,96,97,30.23,30.15,5,2,11,0.08
2014-12-6,53.7,50.9,50.8,53.4,50.5,50.5,99,97,98,30.17,30.01,5,3,10,0.32
2014-12-7,63.2,54.9,51.0,58.0,53.1,49.9,99,93,71,30.03,29.98,5,2,12,0.09
2014-12-8,51.9,49.3,50.4,51.6,48.9,50.0,99,95,97,29.98,29.80,7,4,13,0.00
2014-12-9,54.0,51.6,49.9,53.7,51.1,49.6,99,98,97,29.82,29.70,5,3,12,0.01
2014-12-10,51.4,45.5,43.9,50.9,44.5,42.4,98,96,94,30.22,29.83,8,4,22,0.28
2014-12-11,51.1,47.4,44.1,50.5,46.5,42.8,100,95,95,30.22,30.02,4,1,10,0.07
2014-12-12,51.1,48.9,45.9,50.8,48.3,45.1,99,98,94,30.16,29.97,12,6,26,0.99
2014-12-13,50.4,46.0,44.9,45.8,42.1,41.8,93,83,78,30.32,30.17,9,4,20,0.00
2014-12-14,51.4,45.5,41.8,46.7,43.4,40.5,97,92,81,30.32,30.28,3,0,7,0.00
2014-12-15,52.0,46.2,42.2,49.0,45.1,41.1,98,96,86,30.34,30.29,4,1,8,0.00
2014-12-16,55.3,46.5,41.0,47.3,42.1,40.2,100,82,64,30.28,30.16,6,1,16,0.00
2014-12-17,58.9,52.9,50.6,49.7,45.7,42.5,92,76,61,30.15,29.99,5,2,12,0.10
2014-12-18,57.5,52.4,47.8,52.7,49.5,46.0,95,90,78,30.14,29.93,8,3,19,0.09
2014-12-19,54.8,48.8,45.4,47.6,45.1,43.2,96,87,67,30.24,30.14,3,1,8,0.00
2014-12-20,54.3,48.6,44.6,48.9,44.7,43.3,96,83,71,30.19,30.11,8,4,16,0.00
2014-12-21,54.2,49.6,44.2,49.2,44.9,37.4,94,84,72,30.27,30.00,9,5,21,0.34
2014-12-22,48.3,43.9,41.2,38.5,35.4,33.2,83,71,58,30.41,30.23,10,4,26,0.00
2014-12-23,54.2,47.0,45.5,46.4,38.9,34.2,81,68,64,30.23,30.16,10,7,21,0.00
2014-12-24,58.0,51.8,49.8,47.0,43.5,41.0,83,71,59,30.27,30.20,9,6,20,0.00
2014-12-25,61.6,55.5,49.5,45.6,41.0,38.3,81,59,43,30.22,30.10,10,4,20,0.00
2014-12-26,59.3,53.7,47.8,50.9,47.1,44.1,96,79,61,30.10,29.87,7,2,18,0.37
2014-12-27,47.8,42.5,37.7,46.9,41.0,33.9,98,90,86,29.97,29.72,4,2,10,0.30
2014-12-28,47.7,40.9,33.6,38.8,34.5,31.3,94,79,57,30.03,29.76,4,1,11,0.39
2014-12-29,53.1,48.5,45.2,46.1,42.3,38.7,89,79,72,29.75,29.60,8,1,16,0.17
2014-12-30,34.4,32.6,32.8,33.6,31.7,31.7,97,96,95,30.12,30.07,13,9,26,0.00
2014-12-31,40.4,37.9,34.2,38.6,36.0,33.2,97,93,85,30.20,30.01,20,16,46,0.04
2015-1-1,38.5,37.1,35.1,35.4,34.0,32.1,94,88,81,30.36,30.19,18,12,36,0.00
2015-1-2,38.7,35.4,32.5,31.9,29.3,28.1,89,78,68,30.39,30.28,10,4,22,0.02